International Virtual Aviation Organisation

Eastern Europe and Northern Asia MCD

 
USSS 101200Z 15007MPS CAVOK 18/06 Q1030 R08R/110050 NOSIG RMK QFE752/1003
QNH:(hPa/inHg/mmHg)1030 / 30.42 / 773
QFE:(hPa/inHg/mmHg)1002 / 29.58 / 751
Temperature18
Dew Point6
Visibility> 10000
WeatherCAVOK
Cloud Cover
Transition Height900 m./3800 ft.
Transition LevelFL50
SQUAWK